In Rescue
 
Open Full Screen Window  High Contrast Mode
May 25, 2022 11:02 PM EDT
Weather Information
Wind Direction
  ---
Wind Speed
  00 kt (0 mph)
Wind Gust
  00 kt (0 mph)
Altimeter
29.91 in
Visibility
10 SM
Temperature
18° C
64° F
Dewpoint
16° C
61° F
Humidity
88%
1hr Rain Fall
00.00 in.
24hr Rain Fall
00.13 in.
Sky Condition
Broken @ 11,000 ft
Scattered @ 5,500 ft
Scattered @ 5,000 ft
VFR

METAR KIKW 260302Z AUTO 00000KT 10SM SCT050 SCT055 BKN110 18/16 A2991 RMK AO2 T01770155

FAA Disclaimer: The data displayed is for advisory purposes only and is not to be used for flight planning or operations.